PWSweather.com
Personal Weather Stations
Station Observations
K4FB1
Clubhouse Heritage, Lakeland, FL 33812

Clubhouse HeritageLakeland, FL 33812

Lat: 27.969224, Lon: -81.897769

Elevation: 145

Station Type: Davis Vantage Pro2

http://www.ClubhouseWX.com

High Low Average
Temperature 85.1°F29.5°C 69.9°F21.1°C 74.7°F23.7°C
Dew Point 72.0°F22.2°C 7.9°F-13.4°C 50.4°F10.2°C
Winds 7.0 mph 11.3 kmh 1.0 mph 1.6 kmh 4.0 mph S6.4 kmh S
Wind Gusts 18.0 mph29.0 kmh 3.0 mph4.8 kmh 10.0 mph16.1 kmh
Humidity 68% 0% 18%
Pressure 30.09 in1019.0 mb 29.95 in1014.2 mb -
Precipitation 0.01 in0.3 mm - -
Hour Temp Dew Point Humidity Winds Wind Gusts Pressure Precip Precip Rate Daily Precip Total
12:00 AM 71.8°F22.1°C 30.4°F-0.9°C 0% 3.0 mph SSE4.8 kmh SSE 7.0 mph11.3 kmh 30.07 in1018.3 mb 0.00 in0.0 mm 0.00 in0.0 mm 0.00 in0.0 mm
12:30 AM 71.3°F21.8°C 30.4°F-0.9°C 0% 2.0 mph S3.2 kmh S 7.0 mph11.3 kmh 30.08 in1018.6 mb 0.00 in0.0 mm 0.00 in0.0 mm 0.00 in0.0 mm
01:00 AM 71.2°F21.8°C 30.4°F-0.9°C 0% 3.0 mph SSE4.8 kmh SSE 10.0 mph16.1 kmh 30.07 in1018.3 mb 0.00 in0.0 mm 0.00 in0.0 mm 0.00 in0.0 mm
01:30 AM 71.1°F21.7°C 30.4°F-0.9°C 0% 5.0 mph SE8.0 kmh SE 14.0 mph22.5 kmh 30.07 in1018.3 mb 0.00 in0.0 mm 0.00 in0.0 mm 0.00 in0.0 mm
02:00 AM 70.9°F21.6°C 30.4°F-0.9°C 0% 3.0 mph S4.8 kmh S 7.0 mph11.3 kmh 30.07 in1018.3 mb 0.01 in0.3 mm 0.02 in0.5 mm 0.01 in0.3 mm
02:30 AM 70.6°F21.4°C 30.4°F-0.9°C 0% 2.0 mph SE3.2 kmh SE 6.0 mph9.7 kmh 30.06 in1017.9 mb 0.01 in0.3 mm 0.00 in0.0 mm 0.01 in0.3 mm
03:00 AM 70.3°F21.3°C 30.4°F-0.9°C 0% 1.0 mph SE1.6 kmh SE 3.0 mph4.8 kmh 30.05 in1017.6 mb 0.00 in0.0 mm 0.00 in0.0 mm 0.01 in0.3 mm
03:30 AM 70.0°F21.1°C 30.4°F-0.9°C 0% 1.0 mph SE1.6 kmh SE 3.0 mph4.8 kmh 30.05 in1017.6 mb 0.00 in0.0 mm 0.00 in0.0 mm 0.01 in0.3 mm
04:00 AM 70.0°F21.1°C 30.4°F-0.9°C 0% 1.0 mph SE1.6 kmh SE 3.0 mph4.8 kmh 30.05 in1017.6 mb 0.00 in0.0 mm 0.00 in0.0 mm 0.01 in0.3 mm
04:30 AM 70.0°F21.1°C 30.4°F-0.9°C 0% 2.0 mph SE3.2 kmh SE 4.0 mph6.4 kmh 30.05 in1017.6 mb 0.00 in0.0 mm 0.00 in0.0 mm 0.01 in0.3 mm
05:00 AM 70.0°F21.1°C 30.4°F-0.9°C 0% 2.0 mph SE3.2 kmh SE 4.0 mph6.4 kmh 30.05 in1017.6 mb 0.00 in0.0 mm 0.00 in0.0 mm 0.01 in0.3 mm
05:30 AM 69.9°F21.1°C 30.4°F-0.9°C 0% 2.0 mph SE3.2 kmh SE 5.0 mph8.0 kmh 30.04 in1017.3 mb 0.00 in0.0 mm 0.00 in0.0 mm 0.01 in0.3 mm
06:00 AM 70.3°F21.3°C 30.4°F-0.9°C 0% 4.0 mph SE6.4 kmh SE 8.0 mph12.9 kmh 30.04 in1017.3 mb 0.00 in0.0 mm 0.00 in0.0 mm 0.01 in0.3 mm
06:30 AM 70.4°F21.3°C 30.4°F-0.9°C 0% 4.0 mph SE6.4 kmh SE 8.0 mph12.9 kmh 30.04 in1017.3 mb 0.00 in0.0 mm 0.00 in0.0 mm 0.01 in0.3 mm
07:00 AM 70.7°F21.5°C 30.4°F-0.9°C 0% 4.0 mph SSE6.4 kmh SSE 9.0 mph14.5 kmh 30.05 in1017.6 mb 0.00 in0.0 mm 0.00 in0.0 mm 0.01 in0.3 mm
07:30 AM 70.9°F21.6°C 30.4°F-0.9°C 0% 5.0 mph SSE8.0 kmh SSE 10.0 mph16.1 kmh 30.05 in1017.6 mb 0.00 in0.0 mm 0.00 in0.0 mm 0.01 in0.3 mm
08:00 AM 71.1°F21.7°C 30.4°F-0.9°C 0% 5.0 mph SSE8.0 kmh SSE 11.0 mph17.7 kmh 30.05 in1017.6 mb 0.00 in0.0 mm 0.00 in0.0 mm 0.01 in0.3 mm
08:30 AM 71.1°F21.7°C 30.4°F-0.9°C 0% 5.0 mph SSE8.0 kmh SSE 11.0 mph17.7 kmh 30.05 in1017.6 mb 0.00 in0.0 mm 0.00 in0.0 mm 0.01 in0.3 mm
09:00 AM 71.4°F21.9°C 30.4°F-0.9°C 0% 6.0 mph SSE9.7 kmh SSE 11.0 mph17.7 kmh 30.05 in1017.6 mb 0.00 in0.0 mm 0.00 in0.0 mm 0.01 in0.3 mm
09:30 AM 71.8°F22.1°C 30.4°F-0.9°C 0% 5.0 mph SSE8.0 kmh SSE 11.0 mph17.7 kmh 30.05 in1017.6 mb 0.00 in0.0 mm 0.00 in0.0 mm 0.01 in0.3 mm
10:00 AM 72.2°F22.3°C 30.4°F-0.9°C 0% 4.0 mph S6.4 kmh S 10.0 mph16.1 kmh 30.07 in1018.3 mb 0.00 in0.0 mm 0.00 in0.0 mm 0.01 in0.3 mm
10:30 AM 72.9°F22.7°C 30.4°F-0.9°C 0% 4.0 mph S6.4 kmh S 10.0 mph16.1 kmh 30.08 in1018.6 mb 0.00 in0.0 mm 0.00 in0.0 mm 0.01 in0.3 mm
11:00 AM 74.4°F23.6°C 30.4°F-0.9°C 0% 4.0 mph S6.4 kmh S 11.0 mph17.7 kmh 30.09 in1019.0 mb 0.00 in0.0 mm 0.00 in0.0 mm 0.01 in0.3 mm
11:30 AM 75.8°F24.3°C 30.4°F-0.9°C 0% 4.0 mph S6.4 kmh S 11.0 mph17.7 kmh 30.09 in1019.0 mb 0.00 in0.0 mm 0.00 in0.0 mm 0.01 in0.3 mm
12:00 PM 76.7°F24.8°C 7.9°F-13.4°C 7% 6.0 mph S9.7 kmh S 14.0 mph22.5 kmh 30.08 in1018.6 mb 0.00 in0.0 mm 0.00 in0.0 mm 0.01 in0.3 mm
12:30 PM 79.4°F26.3°C 46.1°F7.8°C 31% 6.0 mph S9.7 kmh S 14.0 mph22.5 kmh 30.07 in1018.3 mb 0.00 in0.0 mm 0.00 in0.0 mm 0.01 in0.3 mm
01:00 PM 81.6°F27.6°C 62.3°F16.8°C 52% 6.0 mph S9.7 kmh S 18.0 mph29.0 kmh 30.06 in1017.9 mb 0.00 in0.0 mm 0.00 in0.0 mm 0.01 in0.3 mm
01:30 PM 82.9°F28.3°C 68.5°F20.3°C 62% 6.0 mph S9.7 kmh S 15.0 mph24.1 kmh 30.04 in1017.3 mb 0.00 in0.0 mm 0.00 in0.0 mm 0.01 in0.3 mm
02:00 PM 84.4°F29.1°C 71.3°F21.8°C 65% 7.0 mph S11.3 kmh S 14.0 mph22.5 kmh 30.03 in1016.9 mb 0.00 in0.0 mm 0.00 in0.0 mm 0.01 in0.3 mm
02:30 PM 85.1°F29.5°C 72.0°F22.2°C 65% 5.0 mph S8.0 kmh S 15.0 mph24.1 kmh 30.01 in1016.3 mb 0.00 in0.0 mm 0.00 in0.0 mm 0.01 in0.3 mm
03:00 PM 83.4°F28.6°C 70.4°F21.3°C 65% 6.0 mph S9.7 kmh S 17.0 mph27.4 kmh 29.99 in1015.6 mb 0.00 in0.0 mm 0.00 in0.0 mm 0.01 in0.3 mm
03:30 PM 83.2°F28.4°C 70.7°F21.5°C 66% 5.0 mph S8.0 kmh S 12.0 mph19.3 kmh 29.98 in1015.2 mb 0.00 in0.0 mm 0.00 in0.0 mm 0.01 in0.3 mm
04:00 PM 84.2°F29.0°C 71.6°F22.0°C 66% 4.0 mph S6.4 kmh S 11.0 mph17.7 kmh 29.98 in1015.2 mb 0.00 in0.0 mm 0.00 in0.0 mm 0.01 in0.3 mm
04:30 PM 83.5°F28.6°C 70.9°F21.6°C 66% 5.0 mph SSW8.0 kmh SSW 14.0 mph22.5 kmh 29.97 in1014.9 mb 0.00 in0.0 mm 0.00 in0.0 mm 0.01 in0.3 mm
05:00 PM 82.2°F27.9°C 70.6°F21.4°C 68% 4.0 mph S6.4 kmh S 13.0 mph20.9 kmh 29.97 in1014.9 mb 0.00 in0.0 mm 0.00 in0.0 mm 0.01 in0.3 mm
05:30 PM 83.0°F28.3°C 71.3°F21.8°C 68% 4.0 mph SW6.4 kmh SW 12.0 mph19.3 kmh 29.97 in1014.9 mb 0.00 in0.0 mm 0.00 in0.0 mm 0.01 in0.3 mm
06:00 PM 83.4°F28.6°C 71.3°F21.8°C 67% 4.0 mph SW6.4 kmh SW 16.0 mph25.7 kmh 29.96 in1014.6 mb 0.00 in0.0 mm 0.00 in0.0 mm 0.01 in0.3 mm
06:30 PM 82.7°F28.2°C 71.1°F21.7°C 68% 5.0 mph SW8.0 kmh SW 14.0 mph22.5 kmh 29.95 in1014.2 mb 0.00 in0.0 mm 0.00 in0.0 mm 0.01 in0.3 mm
07:00 PM 80.3°F26.8°C 68.8°F20.4°C 68% 5.0 mph SW8.0 kmh SW 16.0 mph25.7 kmh 29.96 in1014.6 mb 0.00 in0.0 mm 0.00 in0.0 mm 0.01 in0.3 mm
07:30 PM 78.1°F25.6°C 64.0°F17.8°C 62% 5.0 mph WSW8.0 kmh WSW 16.0 mph25.7 kmh 29.96 in1014.6 mb 0.00 in0.0 mm 0.00 in0.0 mm 0.01 in0.3 mm
08:00 PM 72.5°F22.5°C 64.0°F17.8°C 0% 4.0 mph SW6.4 kmh SW 17.0 mph27.4 kmh 29.96 in1014.6 mb 0.00 in0.0 mm 0.00 in0.0 mm 0.01 in0.3 mm
08:30 PM 71.8°F22.1°C 64.0°F17.8°C 0% 3.0 mph SW4.8 kmh SW 11.0 mph17.7 kmh 29.98 in1015.2 mb 0.00 in0.0 mm 0.00 in0.0 mm 0.01 in0.3 mm
09:00 PM 71.9°F22.2°C 64.0°F17.8°C 0% 2.0 mph SW3.2 kmh SW 7.0 mph11.3 kmh 29.98 in1015.2 mb 0.00 in0.0 mm 0.00 in0.0 mm 0.01 in0.3 mm
09:30 PM 71.8°F22.1°C 64.0°F17.8°C 0% 3.0 mph SSW4.8 kmh SSW 8.0 mph12.9 kmh 29.99 in1015.6 mb 0.00 in0.0 mm 0.00 in0.0 mm 0.01 in0.3 mm
10:00 PM 71.5°F21.9°C 64.0°F17.8°C 0% 2.0 mph S3.2 kmh S 7.0 mph11.3 kmh 30.00 in1015.9 mb 0.00 in0.0 mm 0.00 in0.0 mm 0.01 in0.3 mm
10:30 PM 71.3°F21.8°C 64.0°F17.8°C 0% 1.0 mph SW1.6 kmh SW 5.0 mph8.0 kmh 30.00 in1015.9 mb 0.00 in0.0 mm 0.00 in0.0 mm 0.01 in0.3 mm
11:00 PM 71.7°F22.1°C 64.0°F17.8°C 0% 2.0 mph SW3.2 kmh SW 10.0 mph16.1 kmh 30.00 in1015.9 mb 0.00 in0.0 mm 0.00 in0.0 mm 0.01 in0.3 mm
11:30 PM 71.9°F22.2°C 64.0°F17.8°C 0% 3.0 mph S4.8 kmh S 7.0 mph11.3 kmh 30.00 in1015.9 mb 0.00 in0.0 mm 0.00 in0.0 mm 0.01 in0.3 mm